KGPT/GPT METAR and TAF weather

Enter ICAO airport designator
Station Type Date Time Source
KGPT METAR 2019/12/14 16:53 UTC NOAA

KGPT 141653Z 00000KT 6SM BR OVC003 12/11 A2993 RMK AO2 SLP133 T01170106


Station Type Date Time Source
KGPT Decoded METAR 2019/12/14 16:53 UTC NOAA

GULFPORT-BILOXI REG AIRPORT , MS, United States (KGPT) 30-25N 089-05W 14M
Dec 14, 2019 - 11:53 AM EST / 2019.12.14 1653 UTC
Wind: Calm:0
Visibility: 6 mile(s):0
Sky conditions: overcast
Weather: mist
Temperature: 53.1 F (11.7 C)
Dew Point: 51.1 F (10.6 C)
Relative Humidity: 92%
Pressure (altimeter): 29.93 in. Hg (1013 hPa)
ob: KGPT 141653Z 00000KT 6SM BR OVC003 12/11 A2993 RMK AO2 SLP133 T01170106
cycle: 17

Station Type Date Time Source
KGPT TAF 2019/12/14 17:06 UTC NOAA

TAF
AMD KGPT 141704Z 1417/1512 00000KT 6SM BR OVC003
FM141830 21003KT 6SM BR BKN007
FM141900 21004KT P6SM SCT008 BKN018
FM142000 20005KT P6SM SCT020
FM150000 VRB02KT P6SM FEW250
FM150600 VRB02KT 4SM BR OVC003

Example: see airport list